Terminal Aerodrome Forecast
Issued by NWS

Current Version | Previous Version | Graphics & Text | Print | Product List | Glossary On
Versions: 1 2 3 4 5 6 7 8 9 10 11 12 13 14 15 16 17 18 19 20
000
FTUS41 KILN 162320
TAFLUK
TAF
KLUK 162320Z 1700/1724 VRB03KT P6SM BKN025
      TEMPO 1708/1712 2SM BR SCT025
     FM171200 12006KT P6SM FEW025 BKN200
     FM171800 15008KT P6SM BKN150=

USA.gov is the U.S. government's official web portal to all federal, state and local government web resources and services.